Ulaan-Gom, Mongolia
Current Conditions -  °F | °C
As of 7:00 PM on Friday 28 Nov 2014 (Local Time) from UNAA Reporting Station
Broken Clouds Broken Clouds  
Wind Chill: -16°   Ceiling: 10000
Heat Index:   Visibility: 6mi
Dew Point: -17°   Wind: 16mph
Humidity: 39%   Direction: 280°W
Pressure: 30.27"   Gusts: NA
Location:  49.98°N, 92.08°E
Report Text: UNAA 281100Z 28007MPS 9999 SCT033CB BKN100 M16/M27 Q1025 NOSIGRMK QFE746 20090060
Loading
Personal Weather Stations






























Interactive Weather Map New forecast layout! Learn more

10-Day Weather Forecast

Advertisements
Track Severe Weather on mobile